Tiempo atmosférico en la estación meteorológica de Cañamero, Cáceres (590 m.)



Fecha
DESCASC
Temp. máxima en grados centígrados (hora)
DESCASC
Temp. mínima en grados centígrados (hora)
DESCASC
Temp. media en grados centígrados
DESCASC
Racha de viento máxima en m/sg (hora)
DESCASC
Velocidad máxima media en intervalos de 10 minutos(hora)
DESCASC
Precipitaciones diarias en mm
DESCASC
Precipitaciones de 00:00 a 06:00 en mm
DESCASC
Precipitaciones de 06:00 a 12:00 en mm
DESCASC
Precipitaciones de 12:00 a 18:00 en mm
DESCASC
Precipitaciones de 18:00 a 24:00 en mm
DESCASC
16-01-2020 14.7 (16:30) 7.7 (09:30) 11.2 8.33 (23:59) 5.28 (23:59) 0.4 0 0 0 0.4
15-01-2020 9.4 (21:00) 4.1 (05:30) 6.7 4.17 (17:50) 1.94 (15:40) 0 0 0 0 0
14-01-2020 10.6 (14:50) 0.4 (08:10) 5.5 3.89 (15:20) 2.22 (14:10) 0 0 0 0 0
13-01-2020 10.1 (15:30) 2.6 (23:40) 6.4 5.56 (15:40) 3.89 (15:20) 0 0 0 0 0
12-01-2020 11.6 (16:40) 2.7 (00:00) 7.2 3.61 (08:30) 2.5 (08:30) 0 0 0 0 0
11-01-2020 12.7 (17:00) 3.3 (00:00) 8 5 (06:10) 2.78 (06:10) 0 0 0 0 0
10-01-2020 11.8 (14:50) 3 (00:00) 7.4 7.78 (12:10) 4.17 (12:10) 0 0 0 0 0
09-01-2020 11.5 (14:50) 4.2 (00:00) 7.8 4.72 (17:00) 3.33 (17:00) 0 0 0 0 0
08-01-2020 14.3 (13:50) 4.5 (00:00) 9.4 3.61 (10:20) 2.22 (14:20) 0 0 0 0 0
07-01-2020 15.1 (15:20) 4.1 (00:00) 9.6 3.89 (03:10) 2.5 (04:00) 0 0 0 0 0
06-01-2020 14.2 (16:20) 3.6 (00:00) 8.9 3.89 (07:20) 2.22 (07:20) 0 0 0 0 0
05-01-2020 13.2 (16:00) 3.7 (00:00) 8.4 3.33 (00:20) 1.94 (14:30) 0 0 0 0 0
04-01-2020 12.8 (15:30) 2.5 (00:00) 7.7 5.28 (16:20) 3.06 (16:20) 0 0 0 0 0
03-01-2020 11 (16:00) 4.2 (00:00) 7.6 4.17 (14:40) 2.5 (15:20) 0 0 0 0 0
02-01-2020 13.8 (15:50) 4.7 (00:00) 9.3 4.17 (05:20) 2.5 (04:10) 0 0 0 0 0
01-01-2020 15.3 (15:10) 6.1 (00:00) 10.7 5 (08:20) 2.78 (02:20) 0 0 0 0 0
31-12-2019 16.3 (15:40) 4.8 (00:00) 10.5 4.72 (12:10) 2.78 (06:30) 0 0 0 0 0
30-12-2019 15.7 (13:40) 7 (00:00) 11.3 5.28 (06:30) 3.06 (06:30) 0 0 0 0 0
29-12-2019 17.4 (16:00) 8.6 (00:00) 13 6.11 (07:50) 3.61 (07:50) 0 0 0 0 0
28-12-2019 19.5 (15:30) 8 (00:00) 13.8 5.56 (07:20) 2.78 (04:50) 0 0 0 0 0
27-12-2019 16.8 (15:50) 9.2 (00:00) 13 6.67 (12:30) 2.5 (05:50) 0 0 0 0 0
26-12-2019 17.8 (15:50) 7.5 (00:00) 12.6 3.89 (22:30) 2.22 (10:00) 0 0 0 0 0
25-12-2019 19.5 (15:50) 9.7 (00:00) 14.6 6.11 (01:40) 3.33 (11:00) 0 0 0 0 0
24-12-2019 18.1 (16:30) 7.8 (00:00) 13 6.39 (05:20) 3.33 (05:10) 0 0 0 0 0
23-12-2019 12 (17:40) 5.5 (00:00) 8.8 6.11 (00:50) 3.89 (00:10) 0 0 0 0 0
22-12-2019 12.2 (13:50) 9.8 (00:00) 11 13.61 (00:20) 10 (14:50) 0 0 0 0 0
21-12-2019 15.8 (16:20) 11.2 (00:00) 13.5 21.94 (16:40) 13.33 (16:40) 35.2 22.4 8.2 4.6 0
20-12-2019 14.1 (17:50) 11.7 (00:00) 12.9 19.17 (00:30) 12.78 (02:20) 75.6 52.2 5.6 7.6 10.2

Gráficas

Temp. máximas Temp. mínimas Temp. medias Precipitaciones Rachas de viento máximas Velocidades máximas media en intervalos de 10 minutos

Datos horarios

Fecha y hora oficial Temperatura (ºC) Velocidad del viento (km/h) Dirección del viento Racha (km/h) Dirección de racha Precipitación (mm) Presión (hPa) Tendencia (hPa) Humedad (%)
2020-01-18 23:00:00 9 17 Oeste 39 Oeste 0 -- -- 88
2020-01-18 22:00:00 9.6 21 Oeste 46 Oeste 0 -- -- 98
2020-01-18 21:00:00 10.8 18 Oeste 31 Oeste 0 -- -- 100
2020-01-18 20:00:00 10.5 11 Oeste 19 Oeste 0 -- -- 100
2020-01-18 19:00:00 10.3 8 Oeste 25 Sudoeste 0 -- -- 99
2020-01-18 18:00:00 10.2 4 Oeste 18 Sudoeste 0 -- -- 99
2020-01-18 17:00:00 10.3 10 Sudoeste 17 Sudoeste 0 -- -- 99
2020-01-18 16:00:00 9.7 4 Sudoeste 9 Oeste 0 -- -- 99
2020-01-18 15:00:00 9.8 5 Sudoeste 9 Sudoeste 0.2 -- -- 98
2020-01-18 14:00:00 9.3 4 Sur 9 Sudeste 0.8 -- -- 99
2020-01-18 13:00:00 8.8 3 Sudeste 10 Sudeste 1.4 -- -- 98
2020-01-18 12:00:00 8.3 4 Sudeste 10 Sudeste 1.8 -- -- 99
2020-01-18 11:00:00 7.8 5 Este 13 Este 2.2 -- -- 99
2020-01-18 10:00:00 7.5 5 Este 12 Este 0.8 -- -- 98
2020-01-18 09:00:00 7.3 5 Este 14 Este 0.8 -- -- 98
2020-01-18 08:00:00 7.5 7 Este 18 Nordeste 0.4 -- -- 97
2020-01-18 07:00:00 7.4 6 Este 11 Este 0.4 -- -- 97
2020-01-18 06:00:00 7.4 3 Este 7 Nordeste 0.2 -- -- 96
2020-01-18 05:00:00 7.4 0 Calma 5 Sudeste 0 -- -- 96
2020-01-18 04:00:00 7.4 0 Calma 6 Sudeste 0 -- -- 95
2020-01-18 03:00:00 7.5 3 Este 6 Sudeste 0 -- -- 95
2020-01-18 02:00:00 7.2 0 Calma 6 Oeste 0 -- -- 94
2020-01-18 01:00:00 7.6 4 Oeste 15 Oeste 0 -- -- 93
2020-01-18 00:00:00 7.4 4 Nordeste 5 Nordeste 0 -- -- 93
2020-01-17 23:00:00 7.3 0 Calma 4 Noroeste 0 -- -- 92
2020-01-17 22:00:00 7.3 2 Norte 6 Noroeste 0 -- -- 89
2020-01-17 21:00:00 7.7 0 Calma 8 Oeste 0 -- -- 88
2020-01-17 20:00:00 6.9 4 Oeste 6 Oeste 0 -- -- 90
2020-01-17 19:00:00 8.7 3 Sur 8 Oeste 0 -- -- 84
2020-01-17 18:00:00 10.8 6 Sudoeste 14 Sudoeste 0 -- -- 77
2020-01-17 17:00:00 11.7 12 Sudoeste 21 Oeste 0 -- -- 76
2020-01-17 16:00:00 11.2 7 Sudoeste 14 Sudoeste 0 -- -- 86
2020-01-17 15:00:00 10.1 9 Sudoeste 16 Sudoeste 0 -- -- 91
2020-01-17 14:00:00 9.6 11 Sudoeste 21 Oeste 0 -- -- 95
2020-01-17 13:00:00 9.3 13 Oeste 22 Oeste 0 -- -- 97
2020-01-17 12:00:00 9.2 14 Sudoeste 19 Sudoeste 0.2 -- -- 97
2020-01-17 11:00:00 8.5 13 Sudoeste 20 Sudoeste 0 -- -- 99
2020-01-17 10:00:00 8.3 12 Sudoeste 17 Sudoeste 0 -- -- 98
2020-01-17 09:00:00 8.2 6 Oeste 13 Oeste 0 -- -- 98
2020-01-17 08:00:00 8.4 6 Oeste 13 Sudoeste 0 -- -- 97
2020-01-17 07:00:00 8.3 2 Sudoeste 7 Noroeste 0 -- -- 95
2020-01-17 06:00:00 8.3 3 Oeste 11 Oeste 0 -- -- 93
2020-01-17 05:00:00 8.6 7 Oeste 15 Sudoeste 0 -- -- 90
2020-01-17 04:00:00 8.7 8 Sudoeste 11 Sudoeste 0 -- -- 84
2020-01-17 03:00:00 8.6 6 Oeste 8 Oeste 0 -- -- 83
2020-01-17 02:00:00 8 0 Calma 15 Sudoeste 0 -- -- 86
2020-01-17 01:00:00 8.2 10 Sudoeste 27 Sudoeste 0 -- -- 85
2020-01-17 00:00:00 9 19 Sudoeste 30 Sudoeste 0.4 -- -- 76
2020-01-16 23:00:00 9.9 7 Sur 19 Sur 0 -- -- 65
2020-01-16 22:00:00 10.1 10 Sudoeste 23 Sudoeste 0 -- -- 63
2020-01-16 21:00:00 10.3 14 Sudoeste 28 Sudoeste 0 -- -- 64
2020-01-16 20:00:00 10.7 10 Sudoeste 18 Sur 0 -- -- 60
2020-01-16 19:00:00 11.2 6 Sur 14 Sudoeste 0 -- -- 60
2020-01-16 18:00:00 13.1 12 Sudoeste 23 Oeste 0 -- -- 55
2020-01-16 17:00:00 14.7 15 Sudoeste 24 Sudoeste 0 -- -- 52
2020-01-16 16:00:00 14.2 6 Sudoeste 22 Sudoeste 0 -- -- 56
2020-01-16 15:00:00 14.3 10 Sudoeste 23 Sudoeste 0 -- -- 55
2020-01-16 14:00:00 13.5 11 Sudoeste 22 Sudoeste 0 -- -- 58
2020-01-16 13:00:00 13.4 7 Sur 13 Sur 0 -- -- 65
2020-01-16 12:00:00 12 3 Sur 9 Sudeste 0 -- -- 72
2020-01-16 11:00:00 10.5 4 Sudeste 9 Sudeste 0 -- -- 85
2020-01-16 10:00:00 7.9 0 Calma 6 Sudeste 0 -- -- 97
2020-01-16 09:00:00 8 3 Sudeste 5 Sudeste 0 -- -- 95
2020-01-16 08:00:00 8.8 0 Calma 4 Sur 0 -- -- 95
2020-01-16 07:00:00 9.1 0 Calma 4 Sur 0 -- -- 95
2020-01-16 06:00:00 9.1 0 Calma 6 Sur 0 -- -- 95
2020-01-16 05:00:00 9.2 3 Sudeste 7 Sudeste 0 -- -- 95
2020-01-16 04:00:00 9.3 4 Sudeste 8 Sudeste 0 -- -- 93
2020-01-16 03:00:00 9.5 4 Sudeste 9 Este 0 -- -- 92
2020-01-16 02:00:00 9.6 4 Sudeste 9 Sudeste 0 -- -- 92
2020-01-16 01:00:00 9.5 3 Sudeste 8 Sudeste 0 -- -- 92
2020-01-16 00:00:00 9.4 3 Sudeste 6 Sudeste 0 -- -- 91
2020-01-15 23:00:00 9.2 3 Sudeste 10 Sudeste 0 -- -- 89
2020-01-15 22:00:00 9.2 3 Este 8 Este 0 -- -- 87
2020-01-15 21:00:00 9.4 4 Sudeste 9 Sudeste 0 -- -- 88
2020-01-15 20:00:00 9 3 Sudeste 9 Este 0 -- -- 88
2020-01-15 19:00:00 8.6 4 Este 12 Este 0 -- -- 88
2020-01-15 18:00:00 8.7 4 Este 15 Nordeste 0 -- -- 87
2020-01-15 17:00:00 8.7 5 Este 11 Este 0 -- -- 88
2020-01-15 16:00:00 8.3 5 Este 12 Este 0 -- -- 88
2020-01-15 15:00:00 8.3 3 Este 8 Nordeste 0 -- -- 86
2020-01-15 14:00:00 8.3 4 Este 11 Sudeste 0 -- -- 85
2020-01-15 13:00:00 8.1 3 Sudeste 6 Sudeste 0 -- -- 87
2020-01-15 12:00:00 7.5 2 Sudeste 6 Sudeste 0 -- -- 87
2020-01-15 11:00:00 6.8 2 Sudeste 6 Sudeste 0 -- -- 88
2020-01-15 10:00:00 6.2 2 Nordeste 5 Norte 0 -- -- 91
2020-01-15 09:00:00 6 0 Calma 9 Este 0 -- -- 90
2020-01-15 08:00:00 5.8 4 Este 10 Este 0 -- -- 91
2020-01-15 07:00:00 5.2 4 Este 9 Sudeste 0 -- -- 95
2020-01-15 06:00:00 4.5 2 Este 6 Este 0 -- -- 95
2020-01-15 05:00:00 4.4 3 Sudeste 8 Sudeste 0 -- -- 94
2020-01-15 04:00:00 4.7 3 Sudeste 6 Sudeste 0 -- -- 92
2020-01-15 03:00:00 5.4 0 Calma 4 Sudeste 0 -- -- 92
2020-01-15 02:00:00 6.4 0 Calma 7 Sur 0 -- -- 86
2020-01-15 01:00:00 7.8 4 Sur 13 Sudoeste 0 -- -- 85
2020-01-15 00:00:00 8.2 7 Sudoeste 13 Sur 0 -- -- 83
2020-01-14 23:00:00 8.2 4 Sur 9 Sur 0 -- -- 83
2020-01-14 22:00:00 8 3 Sur 5 Sur 0 -- -- 83
2020-01-14 21:00:00 8.2 0 Calma 5 Sur 0 -- -- 83
2020-01-14 20:00:00 8.6 3 Sudoeste 8 Sur 0 -- -- 80
2020-01-14 19:00:00 8.8 3 Sur 6 Sur 0 -- -- 78
2020-01-14 18:00:00 9.2 4 Sudoeste 12 Sudoeste 0 -- -- 76
2020-01-14 17:00:00 9.8 6 Sudoeste 12 Sudoeste 0 -- -- 71
2020-01-14 16:00:00 10.4 4 Sudoeste 14 Sudoeste 0 -- -- 69
2020-01-14 15:00:00 10.6 4 Sur 13 Sudoeste 0 -- -- 67
2020-01-14 14:00:00 9.4 5 Sudoeste 13 Sudoeste 0 -- -- 69
2020-01-14 13:00:00 9 4 Sudoeste 13 Sudoeste 0 -- -- 72
2020-01-14 12:00:00 8.1 4 Sudeste 11 Este 0 -- -- 75
2020-01-14 11:00:00 5.6 2 Sudeste 10 Sudeste 0 -- -- 85
2020-01-14 10:00:00 3 2 Este 7 Este 0 -- -- 95
2020-01-14 09:00:00 1 3 Este 5 Este 0 -- -- 96
2020-01-14 08:00:00 0.6 0 Calma 4 Este 0 -- -- 94
2020-01-14 07:00:00 1.6 2 Este 4 Este 0 -- -- 93
2020-01-14 06:00:00 1.3 0 Calma 3 Sudeste 0 -- -- 95
2020-01-14 05:00:00 1.4 0 Calma 4 Este 0 -- -- 93
2020-01-14 04:00:00 1.4 0 Calma 3 Sur 0 -- -- 93
2020-01-14 03:00:00 2.2 0 Calma 2 Nordeste 0 -- -- 92
2020-01-14 02:00:00 2.4 0 Calma 4 Norte 0 -- -- 89
2020-01-14 01:00:00 3.2 2 Oeste 6 Oeste 0 -- -- 87
2020-01-14 00:00:00 2.8 3 Noroeste 4 Oeste 0 -- -- 88
2020-01-13 23:00:00 3.4 2 Oeste 5 Noroeste 0 -- -- 86
2020-01-13 22:00:00 2.8 4 Noroeste 4 Noroeste 0 -- -- 89
2020-01-13 21:00:00 3.2 0 Calma 3 Noroeste 0 -- -- 86
2020-01-13 20:00:00 5 0 Calma 6 Oeste 0 -- -- 79
2020-01-13 19:00:00 5.9 4 Oeste 9 Sudoeste 0 -- -- 75
2020-01-13 18:00:00 8.3 6 Sudoeste 18 Sudoeste 0 -- -- 67
2020-01-13 17:00:00 9.8 10 Oeste 19 Sudoeste 0 -- -- 62
2020-01-13 16:00:00 9.9 13 Sudoeste 20 Sudoeste 0 -- -- 64
2020-01-13 15:00:00 9.9 12 Oeste 18 Oeste 0 -- -- 61
2020-01-13 14:00:00 8.8 9 Oeste 13 Oeste 0 -- -- 64
2020-01-13 13:00:00 8.6 6 Oeste 10 Sudoeste 0 -- -- 72
2020-01-13 12:00:00 7.8 3 Sudeste 6 Sur 0 -- -- 71
2020-01-13 11:00:00 6 3 Este 8 Nordeste 0 -- -- 75
2020-01-13 10:00:00 3.9 4 Este 10 Este 0 -- -- 82
2020-01-13 09:00:00 3.1 9 Este 14 Este 0 -- -- 83
2020-01-13 08:00:00 3.5 10 Este 15 Nordeste 0 -- -- 84
2020-01-13 07:00:00 3.4 8 Este 13 Nordeste 0 -- -- 84
2020-01-13 06:00:00 3.1 6 Este 12 Nordeste 0 -- -- 86
2020-01-13 05:00:00 3.5 6 Este 10 Nordeste 0 -- -- 87
2020-01-13 04:00:00 4.1 3 Este 9 Este 0 -- -- 85
2020-01-13 03:00:00 4.3 5 Este 10 Este 0 -- -- 84
2020-01-13 02:00:00 4.6 6 Este 10 Nordeste 0 -- -- 83
2020-01-13 01:00:00 4.1 2 Este 6 Este 0 -- -- 85
2020-01-13 00:00:00 4.8 3 Este 6 Sudeste 0 -- -- 80
2020-01-12 23:00:00 4.6 3 Sudeste 5 Sudeste 0 -- -- 82
2020-01-12 22:00:00 3.9 0 Calma 4 Norte 0 -- -- 82
2020-01-12 21:00:00 4.3 3 Norte 4 Norte 0 -- -- 82
2020-01-12 20:00:00 5 0 Calma 2 Noroeste 0 -- -- 80
2020-01-12 19:00:00 7.1 0 Calma 5 Sudoeste 0 -- -- 73
2020-01-12 18:00:00 10.6 4 Sudoeste 10 Sudoeste 0 -- -- 63
2020-01-12 17:00:00 11.6 4 Oeste 13 Sudoeste 0 -- -- 59
2020-01-12 16:00:00 11.4 5 Oeste 13 Oeste 0 -- -- 60
2020-01-12 15:00:00 10.9 7 Oeste 12 Oeste 0 -- -- 59
2020-01-12 14:00:00 10.8 6 Oeste 10 Oeste 0 -- -- 59
2020-01-12 13:00:00 9.8 5 Oeste 11 Oeste 0 -- -- 67
2020-01-12 12:00:00 9.4 3 Sudoeste 6 Sudoeste 0 -- -- 64
2020-01-12 11:00:00 7.3 3 Este 8 Sudeste 0 -- -- 69
2020-01-12 10:00:00 4.7 6 Este 8 Este 0 -- -- 76
2020-01-12 09:00:00 3.1 5 Este 13 Este 0 -- -- 80
2020-01-12 08:00:00 2.8 5 Este 10 Sudeste 0 -- -- 82
2020-01-12 07:00:00 3 5 Este 8 Este 0 -- -- 80
2020-01-12 06:00:00 3.2 3 Nordeste 6 Nordeste 0 -- -- 80
2020-01-12 05:00:00 4.2 2 Este 4 Este 0 -- -- 76
2020-01-12 04:00:00 4.2 2 Este 5 Nordeste 0 -- -- 77
2020-01-12 03:00:00 5.1 2 Este 4 Sudeste 0 -- -- 74
2020-01-12 02:00:00 5.4 3 Este 4 Este 0 -- -- 74
2020-01-12 01:00:00 5.6 3 Este 5 Sudeste 0 -- -- 72
2020-01-12 00:00:00 5.9 3 Este 5 Sudeste 0 -- -- 72
2020-01-11 23:00:00 5.4 2 Sudeste 5 Este 0 -- -- 73
2020-01-11 22:00:00 5.6 0 Calma 5 Sudeste 0 -- -- 71
2020-01-11 21:00:00 5.5 3 Este 5 Nordeste 0 -- -- 70
2020-01-11 20:00:00 5.6 0 Calma 3 Nordeste 0 -- -- 74
2020-01-11 19:00:00 7.5 0 Calma 2 Este 0 -- -- 66
2020-01-11 18:00:00 12.1 0 Calma 8 Este 0 -- -- 53
2020-01-11 17:00:00 12.7 4 Este 13 Sudeste 0 -- -- 49
2020-01-11 16:00:00 12.5 5 Este 17 Este 0 -- -- 47
2020-01-11 15:00:00 12.1 5 Este 16 Nordeste 0 -- -- 46
2020-01-11 14:00:00 11.4 5 Este 17 Este 0 -- -- 50
2020-01-11 13:00:00 10.7 6 Este 17 Sudeste 0 -- -- 50
2020-01-11 12:00:00 9.2 7 Este 17 Este 0 -- -- 58
2020-01-11 11:00:00 7.3 5 Este 12 Este 0 -- -- 65
2020-01-11 10:00:00 4.7 5 Este 14 Este 0 -- -- 73
2020-01-11 09:00:00 3.9 6 Este 17 Este 0 -- -- 73
2020-01-11 08:00:00 3.7 3 Este 14 Nordeste 0 -- -- 73
2020-01-11 07:00:00 4.4 3 Este 18 Este 0 -- -- 70
2020-01-11 06:00:00 5.8 9 Nordeste 18 Este 0 -- -- 64
2020-01-11 05:00:00 4.3 4 Sudeste 15 Nordeste 0 -- -- 71
2020-01-11 04:00:00 4.5 6 Este 14 Este 0 -- -- 69
2020-01-11 03:00:00 5 5 Este 10 Este 0 -- -- 67
2020-01-11 02:00:00 6.2 7 Este 15 Este 0 -- -- 62
2020-01-11 01:00:00 6.7 8 Nordeste 18 Nordeste 0 -- -- 61
2020-01-11 00:00:00 7.4 9 Nordeste 19 Norte 0 -- -- 59
2020-01-10 23:00:00 7.4 9 Nordeste 18 Nordeste 0 -- -- 59
2020-01-10 22:00:00 6.9 6 Este 14 Nordeste 0 -- -- 60
2020-01-10 21:00:00 7 7 Nordeste 13 Nordeste 0 -- -- 61
2020-01-10 20:00:00 7.4 3 Nordeste 14 Nordeste 0 -- -- 61
2020-01-10 19:00:00 8.1 5 Nordeste 17 Este 0 -- -- 61
2020-01-10 18:00:00 10.1 7 Nordeste 20 Nordeste 0 -- -- 53
2020-01-10 17:00:00 11.2 11 Nordeste 23 Nordeste 0 -- -- 48
2020-01-10 16:00:00 11.1 10 Nordeste 20 Nordeste 0 -- -- 54
2020-01-10 15:00:00 11.7 10 Este 23 Sudeste 0 -- -- 48
2020-01-10 14:00:00 10.6 9 Nordeste 24 Este 0 -- -- 52
2020-01-10 13:00:00 10.5 10 Este 28 Este 0 -- -- 59
2020-01-10 12:00:00 9.4 14 Nordeste 27 Este 0 -- -- 61
2020-01-10 11:00:00 7.7 9 Este 19 Este 0 -- -- 93
2020-01-10 10:00:00 5.8 11 Este 21 Nordeste 0 -- -- 99
2020-01-10 09:00:00 5.2 8 Nordeste 19 Este 0 -- -- 99
2020-01-10 08:00:00 4.5 8 Este 22 Este 0 -- -- 98
2020-01-10 07:00:00 3.9 6 Este 16 Nordeste 0 -- -- 97
2020-01-10 06:00:00 4.1 2 Este 8 Sudeste 0 -- -- 95
2020-01-10 05:00:00 5.2 4 Oeste 11 Noroeste 0 -- -- 91
2020-01-10 04:00:00 6.4 6 Noroeste 14 Norte 0 -- -- 87
2020-01-10 03:00:00 7.5 6 Norte 13 Noroeste 0 -- -- 86
2020-01-10 02:00:00 7.7 5 Noroeste 9 Noroeste 0 -- -- 94
2020-01-10 01:00:00 7.4 0 Calma 12 Oeste 0 -- -- 95
2020-01-10 00:00:00 7.5 8 Oeste 16 Oeste 0 -- -- 95
2020-01-09 23:00:00 7.9 6 Sudoeste 9 Sudoeste 0 -- -- 94
2020-01-09 22:00:00 7.5 5 Sudoeste 8 Sudoeste 0 -- -- 96
2020-01-09 21:00:00 6.7 4 Oeste 9 Oeste 0 -- -- 96
2020-01-09 20:00:00 6.4 0 Calma 5 Oeste 0 -- -- 92
2020-01-09 19:00:00 7 3 Oeste 11 Oeste 0 -- -- 89
2020-01-09 18:00:00 8.7 7 Oeste 14 Oeste 0 -- -- 86
2020-01-09 17:00:00 9.7 12 Oeste 17 Oeste 0 -- -- 80
2020-01-09 16:00:00 11 7 Sudoeste 14 Sudoeste 0 -- -- 76
2020-01-09 15:00:00 11.4 6 Oeste 10 Sudoeste 0 -- -- 71
2020-01-09 14:00:00 10.6 8 Sudoeste 13 Sudoeste 0 -- -- 73
2020-01-09 13:00:00 10.1 4 Sudoeste 10 Oeste 0 -- -- 73
2020-01-09 12:00:00 8.8 3 Oeste 9 Sur 0 -- -- 80
2020-01-09 11:00:00 7.7 0 Calma 6 Este 0 -- -- 80
2020-01-09 10:00:00 5.4 0 Calma 12 Nordeste 0 -- -- 83
2020-01-09 09:00:00 5.2 5 Este 13 Este 0 -- -- 80
2020-01-09 08:00:00 5.1 4 Este 9 Nordeste 0 -- -- 80
2020-01-09 07:00:00 4.3 2 Este 4 Sudeste 0 -- -- 86
2020-01-09 06:00:00 4.9 2 Este 8 Este 0 -- -- 86
2020-01-09 05:00:00 4.9 2 Nordeste 9 Nordeste 0 -- -- 83
2020-01-09 04:00:00 6.9 6 Nordeste 12 Nordeste 0 -- -- 76
2020-01-09 03:00:00 6.8 5 Este 12 Nordeste 0 -- -- 77
2020-01-09 02:00:00 6.4 3 Este 7 Este 0 -- -- 79
2020-01-09 01:00:00 5.4 0 Calma 4 Nordeste 0 -- -- 84
2020-01-09 00:00:00 6.2 3 Norte 5 Este 0 -- -- 77
2020-01-08 23:00:00 7.8 2 Este 9 Este 0 -- -- 72
2020-01-08 22:00:00 7.8 0 Calma 8 Este 0 -- -- 79
2020-01-08 21:00:00 8 0 Calma 4 Este 0 -- -- 84
2020-01-08 20:00:00 6.9 -- -- -- -- 0 -- -- 84
2020-01-08 19:00:00 8.7 0 Calma 5 Sudoeste 0 -- -- 78
2020-01-08 18:00:00 12.3 3 Oeste 7 Oeste 0 -- -- 67
2020-01-08 17:00:00 13.5 6 Oeste 9 Oeste 0 -- -- 63
2020-01-08 16:00:00 14.3 4 Sudoeste 8 Sudoeste 0 -- -- 64
2020-01-08 15:00:00 13.5 6 Oeste 11 Oeste 0 -- -- 67
2020-01-08 14:00:00 14 6 Sudoeste 10 Oeste 0 -- -- 68
2020-01-08 13:00:00 12.7 3 Norte 9 Norte 0 -- -- 67
2020-01-08 12:00:00 10.8 4 Nordeste 10 Nordeste 0 -- -- 74
2020-01-08 11:00:00 8.1 5 Este 13 Este 0 -- -- 83
2020-01-08 10:00:00 6 6 Este 13 Nordeste 0 -- -- 90
2020-01-08 09:00:00 4.5 3 Este 9 Este 0 -- -- 90
2020-01-08 08:00:00 4.7 4 Este 10 Este 0 -- -- 92
2020-01-08 07:00:00 4.8 3 Este 11 Este 0 -- -- 94
2020-01-08 06:00:00 5 6 Este 12 Nordeste 0 -- -- 94
2020-01-08 05:00:00 5.1 2 Este 6 Sudeste 0 -- -- 93
2020-01-08 04:00:00 4.5 0 Calma 5 Sudeste 0 -- -- 93
2020-01-08 03:00:00 5.4 2 Este 5 Sudeste 0 -- -- 95
2020-01-08 02:00:00 5.1 0 Calma 5 Sudeste 0 -- -- 93
2020-01-08 01:00:00 5.1 0 Calma 4 Sudeste 0 -- -- 91
2020-01-08 00:00:00 5.7 0 Calma 3 Sur 0 -- -- 89
2020-01-07 23:00:00 5.8 0 Calma 0 Calma 0 -- -- 94
2020-01-07 22:00:00 6.3 0 Calma 3 Oeste 0 -- -- 91
2020-01-07 21:00:00 7.3 2 Sur 4 Sudeste 0 -- -- 89
2020-01-07 20:00:00 8 0 Calma 4 Oeste 0 -- -- 84
2020-01-07 19:00:00 9.9 2 Oeste 4 Oeste 0 -- -- 77
2020-01-07 18:00:00 13.2 3 Oeste 7 Oeste 0 -- -- 68
2020-01-07 17:00:00 14.3 3 Noroeste 9 Oeste 0 -- -- 62
2020-01-07 16:00:00 14.8 6 Oeste 10 Oeste 0 -- -- 59
2020-01-07 15:00:00 14.8 4 Oeste 9 Noroeste 0 -- -- 63
2020-01-07 14:00:00 14.1 6 Noroeste 8 Noroeste 0 -- -- 67
2020-01-07 13:00:00 13.2 3 Sudoeste 6 Oeste 0 -- -- 60
2020-01-07 12:00:00 11 2 Este 10 Nordeste 0 -- -- 69
2020-01-07 11:00:00 8.8 4 Este 12 Este 0 -- -- 75
2020-01-07 10:00:00 6.6 4 Este 13 Este 0 -- -- 82
2020-01-07 09:00:00 5.2 5 Este 12 Nordeste 0 -- -- 86
2020-01-07 08:00:00 4.4 2 Este 6 Este 0 -- -- 91
2020-01-07 07:00:00 4.2 2 Este 5 Nordeste 0 -- -- 93
2020-01-07 06:00:00 4.7 3 Nordeste 7 Nordeste 0 -- -- 89
2020-01-07 05:00:00 6.4 6 Nordeste 13 Este 0 -- -- 84
2020-01-07 04:00:00 6.9 9 Este 14 Este 0 -- -- 84
2020-01-07 03:00:00 6.3 7 Nordeste 11 Nordeste 0 -- -- 87
2020-01-07 02:00:00 7 3 Este 6 Este 0 -- -- 86
2020-01-07 01:00:00 6.4 3 Este 5 Este 0 -- -- 90
2020-01-07 00:00:00 6.1 0 Calma 4 Este 0 -- -- 91
2020-01-06 23:00:00 7.2 3 Este 6 Este 0 -- -- 85
2020-01-06 22:00:00 6.5 2 Nordeste 6 Nordeste 0 -- -- 84
2020-01-06 21:00:00 7.6 4 Nordeste 8 Noroeste 0 -- -- 81
2020-01-06 20:00:00 7.6 4 Noroeste 6 Noroeste 0 -- -- 87
2020-01-06 19:00:00 8.5 2 Oeste 5 Oeste 0 -- -- 79
2020-01-06 18:00:00 11.8 3 Oeste 10 Sudoeste 0 -- -- 70
2020-01-06 17:00:00 13.1 6 Oeste 9 Oeste 0 -- -- 65
2020-01-06 16:00:00 13.7 3 Oeste 9 Oeste 0 -- -- 61
2020-01-06 15:00:00 12.8 5 Noroeste 9 Oeste 0 -- -- 65
2020-01-06 14:00:00 12.4 2 Sudoeste 9 Oeste 0 -- -- 67
2020-01-06 13:00:00 10.8 5 Noroeste 8 Noroeste 0 -- -- 70
2020-01-06 12:00:00 9.7 0 Calma 8 Noroeste 0 -- -- 74
2020-01-06 11:00:00 7.9 0 Calma 5 Norte 0 -- -- 77
2020-01-06 10:00:00 5.2 4 Nordeste 9 Este 0 -- -- 87